sensor_id;sensor_type;location;lat;lon;timestamp;P1;durP1;ratioP1;P2;durP2;ratioP2
77055;SDS011;67471;44.918;8.614;2023-04-28T00:01:12;6.72;;;2.92;;
77055;SDS011;67471;44.918;8.614;2023-04-28T00:04:15;7.85;;;3.22;;
77055;SDS011;67471;44.918;8.614;2023-04-28T00:07:20;6.20;;;2.60;;
77055;SDS011;67471;44.918;8.614;2023-04-28T00:10:23;8.38;;;2.75;;
77055;SDS011;67471;44.918;8.614;2023-04-28T00:13:27;10.07;;;3.17;;
77055;SDS011;67471;44.918;8.614;2023-04-28T00:16:31;4.85;;;2.92;;
77055;SDS011;67471;44.918;8.614;2023-04-28T00:19:35;7.68;;;3.17;;
77055;SDS011;67471;44.918;8.614;2023-04-28T00:22:39;10.50;;;3.83;;
77055;SDS011;67471;44.918;8.614;2023-04-28T00:25:42;6.97;;;2.65;;
77055;SDS011;67471;44.918;8.614;2023-04-28T00:28:46;7.75;;;2.38;;
77055;SDS011;67471;44.918;8.614;2023-04-28T00:31:50;5.57;;;2.70;;
77055;SDS011;67471;44.918;8.614;2023-04-28T00:34:54;5.90;;;2.55;;
77055;SDS011;67471;44.918;8.614;2023-04-28T00:37:59;9.25;;;3.28;;
77055;SDS011;67471;44.918;8.614;2023-04-28T00:41:03;6.38;;;3.10;;
77055;SDS011;67471;44.918;8.614;2023-04-28T00:44:07;6.53;;;2.95;;
77055;SDS011;67471;44.918;8.614;2023-04-28T00:47:10;8.40;;;3.55;;
77055;SDS011;67471;44.918;8.614;2023-04-28T00:50:14;8.10;;;3.70;;
77055;SDS011;67471;44.918;8.614;2023-04-28T00:53:19;7.93;;;4.18;;
77055;SDS011;67471;44.918;8.614;2023-04-28T00:56:23;8.70;;;4.28;;
77055;SDS011;67471;44.918;8.614;2023-04-28T00:59:30;7.65;;;2.63;;
77055;SDS011;67471;44.918;8.614;2023-04-28T01:02:37;5.88;;;2.97;;
77055;SDS011;67471;44.918;8.614;2023-04-28T01:05:41;7.25;;;2.55;;
77055;SDS011;67471;44.918;8.614;2023-04-28T01:08:47;7.38;;;3.42;;
77055;SDS011;67471;44.918;8.614;2023-04-28T01:11:52;5.22;;;2.72;;
77055;SDS011;67471;44.918;8.614;2023-04-28T01:15:16;8.35;;;3.55;;
77055;SDS011;67471;44.918;8.614;2023-04-28T01:18:22;8.50;;;4.28;;
77055;SDS011;67471;44.918;8.614;2023-04-28T01:21:27;11.93;;;3.60;;
77055;SDS011;67471;44.918;8.614;2023-04-28T01:24:33;9.50;;;3.78;;
77055;SDS011;67471;44.918;8.614;2023-04-28T01:27:40;8.23;;;4.05;;
77055;SDS011;67471;44.918;8.614;2023-04-28T01:30:44;7.75;;;3.13;;
77055;SDS011;67471;44.918;8.614;2023-04-28T01:33:48;6.80;;;3.13;;
77055;SDS011;67471;44.918;8.614;2023-04-28T01:36:53;5.30;;;2.90;;
77055;SDS011;67471;44.918;8.614;2023-04-28T01:39:57;9.88;;;3.78;;
77055;SDS011;67471;44.918;8.614;2023-04-28T01:43:01;8.18;;;3.72;;
77055;SDS011;67471;44.918;8.614;2023-04-28T01:46:07;8.15;;;3.47;;
77055;SDS011;67471;44.918;8.614;2023-04-28T01:49:11;11.38;;;3.35;;
77055;SDS011;67471;44.918;8.614;2023-04-28T01:52:14;8.82;;;4.13;;
77055;SDS011;67471;44.918;8.614;2023-04-28T01:55:19;8.27;;;4.15;;
77055;SDS011;67471;44.918;8.614;2023-04-28T01:58:23;8.23;;;4.05;;
77055;SDS011;67471;44.918;8.614;2023-04-28T02:01:27;9.43;;;3.92;;
77055;SDS011;67471;44.918;8.614;2023-04-28T02:04:32;6.55;;;3.13;;
77055;SDS011;67471;44.918;8.614;2023-04-28T02:07:36;5.75;;;3.20;;
77055;SDS011;67471;44.918;8.614;2023-04-28T02:10:40;6.15;;;3.00;;
77055;SDS011;67471;44.918;8.614;2023-04-28T02:13:44;8.00;;;3.30;;
77055;SDS011;67471;44.918;8.614;2023-04-28T02:16:48;6.82;;;3.10;;
77055;SDS011;67471;44.918;8.614;2023-04-28T02:19:55;5.70;;;2.75;;
77055;SDS011;67471;44.918;8.614;2023-04-28T02:22:59;7.60;;;3.00;;
77055;SDS011;67471;44.918;8.614;2023-04-28T02:26:02;6.68;;;3.05;;
77055;SDS011;67471;44.918;8.614;2023-04-28T02:29:06;10.80;;;3.42;;
77055;SDS011;67471;44.918;8.614;2023-04-28T02:32:10;6.07;;;2.95;;
77055;SDS011;67471;44.918;8.614;2023-04-28T02:35:14;7.55;;;3.20;;
77055;SDS011;67471;44.918;8.614;2023-04-28T02:38:17;9.32;;;3.08;;
77055;SDS011;67471;44.918;8.614;2023-04-28T02:41:21;8.75;;;3.55;;
77055;SDS011;67471;44.918;8.614;2023-04-28T02:44:25;6.65;;;3.25;;
77055;SDS011;67471;44.918;8.614;2023-04-28T02:47:29;8.25;;;3.50;;
77055;SDS011;67471;44.918;8.614;2023-04-28T02:50:33;9.68;;;3.47;;
77055;SDS011;67471;44.918;8.614;2023-04-28T02:53:36;6.85;;;3.53;;
77055;SDS011;67471;44.918;8.614;2023-04-28T02:56:40;7.78;;;3.20;;
77055;SDS011;67471;44.918;8.614;2023-04-28T02:59:44;9.50;;;4.03;;
77055;SDS011;67471;44.918;8.614;2023-04-28T03:02:48;9.63;;;3.97;;
77055;SDS011;67471;44.918;8.614;2023-04-28T03:05:52;7.82;;;3.67;;
77055;SDS011;67471;44.918;8.614;2023-04-28T03:08:56;6.65;;;3.63;;
77055;SDS011;67471;44.918;8.614;2023-04-28T03:12:00;9.07;;;4.35;;
77055;SDS011;67471;44.918;8.614;2023-04-28T03:15:06;7.13;;;4.00;;
77055;SDS011;67471;44.918;8.614;2023-04-28T03:18:13;7.40;;;4.13;;
77055;SDS011;67471;44.918;8.614;2023-04-28T03:21:16;5.88;;;3.80;;
77055;SDS011;67471;44.918;8.614;2023-04-28T03:24:20;9.68;;;4.63;;
77055;SDS011;67471;44.918;8.614;2023-04-28T03:27:27;6.70;;;4.00;;
77055;SDS011;67471;44.918;8.614;2023-04-28T03:30:32;8.30;;;4.47;;
77055;SDS011;67471;44.918;8.614;2023-04-28T03:33:36;5.68;;;3.85;;
77055;SDS011;67471;44.918;8.614;2023-04-28T03:36:39;9.38;;;4.18;;
77055;SDS011;67471;44.918;8.614;2023-04-28T03:39:51;10.73;;;3.83;;
77055;SDS011;67471;44.918;8.614;2023-04-28T03:42:55;9.25;;;4.70;;
77055;SDS011;67471;44.918;8.614;2023-04-28T03:46:04;10.68;;;4.45;;
77055;SDS011;67471;44.918;8.614;2023-04-28T03:49:07;7.43;;;3.50;;
77055;SDS011;67471;44.918;8.614;2023-04-28T03:52:11;8.13;;;3.55;;
77055;SDS011;67471;44.918;8.614;2023-04-28T03:55:16;13.07;;;4.40;;
77055;SDS011;67471;44.918;8.614;2023-04-28T03:58:19;8.13;;;3.75;;
77055;SDS011;67471;44.918;8.614;2023-04-28T04:01:23;6.32;;;3.58;;
77055;SDS011;67471;44.918;8.614;2023-04-28T04:04:27;8.65;;;3.70;;
77055;SDS011;67471;44.918;8.614;2023-04-28T04:07:30;5.85;;;3.80;;
77055;SDS011;67471;44.918;8.614;2023-04-28T04:10:34;6.30;;;3.17;;
77055;SDS011;67471;44.918;8.614;2023-04-28T04:13:39;8.13;;;3.55;;
77055;SDS011;67471;44.918;8.614;2023-04-28T04:16:46;10.80;;;4.07;;
77055;SDS011;67471;44.918;8.614;2023-04-28T04:19:50;10.55;;;3.85;;
77055;SDS011;67471;44.918;8.614;2023-04-28T04:22:54;10.77;;;3.92;;
77055;SDS011;67471;44.918;8.614;2023-04-28T04:25:58;8.57;;;4.63;;
77055;SDS011;67471;44.918;8.614;2023-04-28T04:29:01;7.55;;;4.00;;
77055;SDS011;67471;44.918;8.614;2023-04-28T04:32:05;9.00;;;4.70;;
77055;SDS011;67471;44.918;8.614;2023-04-28T04:35:09;9.52;;;4.32;;
77055;SDS011;67471;44.918;8.614;2023-04-28T04:38:13;9.40;;;4.40;;
77055;SDS011;67471;44.918;8.614;2023-04-28T04:41:17;12.40;;;4.40;;
77055;SDS011;67471;44.918;8.614;2023-04-28T04:44:27;8.52;;;4.13;;
77055;SDS011;67471;44.918;8.614;2023-04-28T04:47:31;14.80;;;4.55;;
77055;SDS011;67471;44.918;8.614;2023-04-28T04:50:35;10.65;;;4.05;;
77055;SDS011;67471;44.918;8.614;2023-04-28T04:53:39;5.55;;;3.45;;
77055;SDS011;67471;44.918;8.614;2023-04-28T04:56:43;13.98;;;9.07;;
77055;SDS011;67471;44.918;8.614;2023-04-28T04:59:49;13.05;;;5.68;;
77055;SDS011;67471;44.918;8.614;2023-04-28T05:02:54;10.73;;;5.72;;
77055;SDS011;67471;44.918;8.614;2023-04-28T05:05:59;21.15;;;8.15;;
77055;SDS011;67471;44.918;8.614;2023-04-28T05:09:19;19.33;;;7.55;;
77055;SDS011;67471;44.918;8.614;2023-04-28T05:12:23;16.08;;;6.88;;
77055;SDS011;67471;44.918;8.614;2023-04-28T05:15:27;24.73;;;9.52;;
77055;SDS011;67471;44.918;8.614;2023-04-28T05:18:52;19.75;;;7.22;;
77055;SDS011;67471;44.918;8.614;2023-04-28T05:21:55;12.57;;;6.57;;
77055;SDS011;67471;44.918;8.614;2023-04-28T05:25:00;15.93;;;7.25;;
77055;SDS011;67471;44.918;8.614;2023-04-28T05:28:04;16.73;;;7.28;;
77055;SDS011;67471;44.918;8.614;2023-04-28T05:31:10;15.07;;;6.45;;
77055;SDS011;67471;44.918;8.614;2023-04-28T05:34:14;18.23;;;7.70;;
77055;SDS011;67471;44.918;8.614;2023-04-28T05:37:18;13.50;;;6.65;;
77055;SDS011;67471;44.918;8.614;2023-04-28T05:40:23;16.08;;;6.90;;
77055;SDS011;67471;44.918;8.614;2023-04-28T05:43:26;14.18;;;6.72;;
77055;SDS011;67471;44.918;8.614;2023-04-28T05:46:30;14.90;;;6.75;;
77055;SDS011;67471;44.918;8.614;2023-04-28T05:49:36;10.55;;;6.32;;
77055;SDS011;67471;44.918;8.614;2023-04-28T05:52:42;14.57;;;6.78;;
77055;SDS011;67471;44.918;8.614;2023-04-28T05:55:46;19.13;;;7.82;;
77055;SDS011;67471;44.918;8.614;2023-04-28T05:58:50;19.30;;;7.57;;
77055;SDS011;67471;44.918;8.614;2023-04-28T06:01:54;15.15;;;6.75;;
77055;SDS011;67471;44.918;8.614;2023-04-28T06:04:57;16.85;;;6.18;;
77055;SDS011;67471;44.918;8.614;2023-04-28T06:08:02;14.52;;;6.40;;
77055;SDS011;67471;44.918;8.614;2023-04-28T06:11:08;15.48;;;6.60;;
77055;SDS011;67471;44.918;8.614;2023-04-28T06:14:12;18.75;;;7.28;;
77055;SDS011;67471;44.918;8.614;2023-04-28T06:17:15;21.42;;;6.95;;
77055;SDS011;67471;44.918;8.614;2023-04-28T06:20:20;13.48;;;7.20;;
77055;SDS011;67471;44.918;8.614;2023-04-28T06:23:24;12.98;;;6.38;;
77055;SDS011;67471;44.918;8.614;2023-04-28T06:26:28;16.23;;;5.80;;
77055;SDS011;67471;44.918;8.614;2023-04-28T06:29:32;14.70;;;5.35;;
77055;SDS011;67471;44.918;8.614;2023-04-28T06:32:36;15.55;;;6.75;;
77055;SDS011;67471;44.918;8.614;2023-04-28T06:35:41;10.27;;;6.00;;
77055;SDS011;67471;44.918;8.614;2023-04-28T06:38:44;16.48;;;5.60;;
77055;SDS011;67471;44.918;8.614;2023-04-28T06:42:08;14.90;;;6.72;;
77055;SDS011;67471;44.918;8.614;2023-04-28T06:45:14;9.60;;;5.53;;
77055;SDS011;67471;44.918;8.614;2023-04-28T06:48:18;14.25;;;5.88;;
77055;SDS011;67471;44.918;8.614;2023-04-28T06:51:21;11.82;;;5.65;;
77055;SDS011;67471;44.918;8.614;2023-04-28T06:54:25;15.20;;;5.68;;
77055;SDS011;67471;44.918;8.614;2023-04-28T06:57:29;13.68;;;7.30;;
77055;SDS011;67471;44.918;8.614;2023-04-28T07:00:33;16.60;;;7.20;;
77055;SDS011;67471;44.918;8.614;2023-04-28T07:03:37;14.70;;;6.18;;
77055;SDS011;67471;44.918;8.614;2023-04-28T07:06:41;10.90;;;5.78;;
77055;SDS011;67471;44.918;8.614;2023-04-28T07:09:45;11.82;;;6.25;;
77055;SDS011;67471;44.918;8.614;2023-04-28T07:12:49;8.52;;;5.45;;
77055;SDS011;67471;44.918;8.614;2023-04-28T07:15:54;10.48;;;5.00;;
77055;SDS011;67471;44.918;8.614;2023-04-28T07:18:58;9.85;;;4.85;;
77055;SDS011;67471;44.918;8.614;2023-04-28T07:22:02;12.45;;;6.20;;
77055;SDS011;67471;44.918;8.614;2023-04-28T07:25:06;11.52;;;5.63;;
77055;SDS011;67471;44.918;8.614;2023-04-28T07:28:10;12.10;;;6.47;;
77055;SDS011;67471;44.918;8.614;2023-04-28T07:31:16;11.52;;;5.18;;
77055;SDS011;67471;44.918;8.614;2023-04-28T07:34:19;11.65;;;5.65;;
77055;SDS011;67471;44.918;8.614;2023-04-28T07:37:23;14.38;;;5.43;;
77055;SDS011;67471;44.918;8.614;2023-04-28T07:40:27;13.00;;;5.20;;
77055;SDS011;67471;44.918;8.614;2023-04-28T07:43:31;16.55;;;5.53;;
77055;SDS011;67471;44.918;8.614;2023-04-28T07:46:35;11.18;;;5.13;;
77055;SDS011;67471;44.918;8.614;2023-04-28T07:49:38;10.02;;;4.40;;
77055;SDS011;67471;44.918;8.614;2023-04-28T07:52:42;13.27;;;5.50;;
77055;SDS011;67471;44.918;8.614;2023-04-28T07:55:47;10.07;;;4.50;;
77055;SDS011;67471;44.918;8.614;2023-04-28T07:58:51;9.13;;;3.80;;
77055;SDS011;67471;44.918;8.614;2023-04-28T08:01:54;11.43;;;4.65;;
77055;SDS011;67471;44.918;8.614;2023-04-28T08:04:58;11.10;;;4.80;;
77055;SDS011;67471;44.918;8.614;2023-04-28T08:08:02;11.10;;;4.93;;
77055;SDS011;67471;44.918;8.614;2023-04-28T08:11:06;10.50;;;4.93;;
77055;SDS011;67471;44.918;8.614;2023-04-28T08:14:10;8.10;;;4.18;;
77055;SDS011;67471;44.918;8.614;2023-04-28T08:17:14;10.63;;;4.40;;
77055;SDS011;67471;44.918;8.614;2023-04-28T08:20:18;6.38;;;3.10;;
77055;SDS011;67471;44.918;8.614;2023-04-28T08:23:23;7.88;;;4.43;;
77055;SDS011;67471;44.918;8.614;2023-04-28T08:26:30;7.32;;;4.38;;
77055;SDS011;67471;44.918;8.614;2023-04-28T08:29:34;11.60;;;4.53;;
77055;SDS011;67471;44.918;8.614;2023-04-28T08:32:38;6.95;;;3.83;;
77055;SDS011;67471;44.918;8.614;2023-04-28T08:35:42;8.05;;;4.28;;
77055;SDS011;67471;44.918;8.614;2023-04-28T08:38:46;10.00;;;4.60;;
77055;SDS011;67471;44.918;8.614;2023-04-28T08:41:49;9.13;;;3.85;;
77055;SDS011;67471;44.918;8.614;2023-04-28T08:44:54;9.38;;;4.70;;
77055;SDS011;67471;44.918;8.614;2023-04-28T08:48:01;9.93;;;3.65;;
77055;SDS011;67471;44.918;8.614;2023-04-28T08:51:07;6.70;;;3.05;;
77055;SDS011;67471;44.918;8.614;2023-04-28T08:54:13;5.68;;;3.35;;
77055;SDS011;67471;44.918;8.614;2023-04-28T08:57:22;8.98;;;3.42;;
77055;SDS011;67471;44.918;8.614;2023-04-28T09:00:29;11.88;;;3.42;;
77055;SDS011;67471;44.918;8.614;2023-04-28T09:03:33;6.05;;;3.22;;
77055;SDS011;67471;44.918;8.614;2023-04-28T09:06:37;6.88;;;3.40;;
77055;SDS011;67471;44.918;8.614;2023-04-28T09:09:41;6.97;;;2.92;;
77055;SDS011;67471;44.918;8.614;2023-04-28T09:12:45;6.90;;;3.63;;
77055;SDS011;67471;44.918;8.614;2023-04-28T09:15:49;8.23;;;3.47;;
77055;SDS011;67471;44.918;8.614;2023-04-28T09:18:56;9.77;;;3.80;;
77055;SDS011;67471;44.918;8.614;2023-04-28T09:22:00;6.75;;;3.17;;
77055;SDS011;67471;44.918;8.614;2023-04-28T09:25:13;5.85;;;2.83;;
77055;SDS011;67471;44.918;8.614;2023-04-28T09:28:19;6.97;;;3.15;;
77055;SDS011;67471;44.918;8.614;2023-04-28T09:31:24;6.20;;;2.55;;
77055;SDS011;67471;44.918;8.614;2023-04-28T09:34:41;6.78;;;3.10;;
77055;SDS011;67471;44.918;8.614;2023-04-28T09:37:56;8.60;;;3.10;;
77055;SDS011;67471;44.918;8.614;2023-04-28T09:41:01;4.20;;;2.65;;
77055;SDS011;67471;44.918;8.614;2023-04-28T09:44:15;6.70;;;2.55;;
77055;SDS011;67471;44.918;8.614;2023-04-28T09:47:20;4.35;;;2.25;;
77055;SDS011;67471;44.918;8.614;2023-04-28T09:50:25;8.88;;;3.38;;
77055;SDS011;67471;44.918;8.614;2023-04-28T09:53:29;8.85;;;2.45;;
77055;SDS011;67471;44.918;8.614;2023-04-28T09:56:33;6.63;;;2.20;;
77055;SDS011;67471;44.918;8.614;2023-04-28T09:59:40;7.70;;;3.83;;
77055;SDS011;67471;44.918;8.614;2023-04-28T10:02:49;6.80;;;2.10;;
77055;SDS011;67471;44.918;8.614;2023-04-28T10:05:54;5.18;;;2.42;;
77055;SDS011;67471;44.918;8.614;2023-04-28T10:09:00;14.13;;;3.28;;
77055;SDS011;67471;44.918;8.614;2023-04-28T10:12:04;9.07;;;2.40;;
77055;SDS011;67471;44.918;8.614;2023-04-28T10:15:08;3.90;;;1.83;;
77055;SDS011;67471;44.918;8.614;2023-04-28T10:18:13;5.85;;;2.45;;
77055;SDS011;67471;44.918;8.614;2023-04-28T10:21:17;5.95;;;2.13;;
77055;SDS011;67471;44.918;8.614;2023-04-28T10:24:28;4.35;;;1.95;;
77055;SDS011;67471;44.918;8.614;2023-04-28T10:27:36;7.95;;;2.63;;
77055;SDS011;67471;44.918;8.614;2023-04-28T10:30:41;4.30;;;2.30;;
77055;SDS011;67471;44.918;8.614;2023-04-28T10:33:45;4.68;;;2.25;;
77055;SDS011;67471;44.918;8.614;2023-04-28T10:36:50;6.35;;;2.28;;
77055;SDS011;67471;44.918;8.614;2023-04-28T10:43:40;6.72;;;2.30;;
77055;SDS011;67471;44.918;8.614;2023-04-28T10:47:00;7.38;;;2.53;;
77055;SDS011;67471;44.918;8.614;2023-04-28T10:50:09;6.07;;;3.60;;
77055;SDS011;67471;44.918;8.614;2023-04-28T10:53:13;4.60;;;1.98;;
77055;SDS011;67471;44.918;8.614;2023-04-28T10:56:24;6.22;;;2.45;;
77055;SDS011;67471;44.918;8.614;2023-04-28T10:59:29;9.38;;;3.35;;
77055;SDS011;67471;44.918;8.614;2023-04-28T11:02:37;6.95;;;2.90;;
77055;SDS011;67471;44.918;8.614;2023-04-28T11:06:16;7.10;;;3.67;;
77055;SDS011;67471;44.918;8.614;2023-04-28T11:12:33;4.60;;;2.42;;
77055;SDS011;67471;44.918;8.614;2023-04-28T11:15:37;8.43;;;2.65;;
77055;SDS011;67471;44.918;8.614;2023-04-28T11:18:52;5.22;;;2.58;;
77055;SDS011;67471;44.918;8.614;2023-04-28T11:21:58;6.28;;;2.45;;
77055;SDS011;67471;44.918;8.614;2023-04-28T11:25:03;7.60;;;2.42;;
77055;SDS011;67471;44.918;8.614;2023-04-28T11:28:08;5.38;;;2.22;;
77055;SDS011;67471;44.918;8.614;2023-04-28T11:31:13;6.03;;;2.20;;
77055;SDS011;67471;44.918;8.614;2023-04-28T11:34:21;7.05;;;2.80;;
77055;SDS011;67471;44.918;8.614;2023-04-28T11:37:26;9.60;;;4.28;;
77055;SDS011;67471;44.918;8.614;2023-04-28T11:40:30;6.03;;;2.70;;
77055;SDS011;67471;44.918;8.614;2023-04-28T11:43:34;7.25;;;2.30;;
77055;SDS011;67471;44.918;8.614;2023-04-28T11:46:45;7.47;;;2.20;;
77055;SDS011;67471;44.918;8.614;2023-04-28T11:49:58;6.78;;;3.95;;
77055;SDS011;67471;44.918;8.614;2023-04-28T11:53:03;5.47;;;2.40;;
77055;SDS011;67471;44.918;8.614;2023-04-28T11:56:07;5.80;;;2.35;;
77055;SDS011;67471;44.918;8.614;2023-04-28T11:59:11;6.93;;;3.15;;
77055;SDS011;67471;44.918;8.614;2023-04-28T12:02:15;5.70;;;2.50;;
77055;SDS011;67471;44.918;8.614;2023-04-28T12:05:27;6.93;;;2.33;;
77055;SDS011;67471;44.918;8.614;2023-04-28T12:08:31;4.80;;;1.67;;
77055;SDS011;67471;44.918;8.614;2023-04-28T12:11:35;8.30;;;3.22;;
77055;SDS011;67471;44.918;8.614;2023-04-28T12:14:58;4.18;;;1.63;;
77055;SDS011;67471;44.918;8.614;2023-04-28T12:18:10;7.38;;;2.20;;
77055;SDS011;67471;44.918;8.614;2023-04-28T12:21:21;4.45;;;1.88;;
77055;SDS011;67471;44.918;8.614;2023-04-28T12:24:25;6.30;;;2.03;;
77055;SDS011;67471;44.918;8.614;2023-04-28T12:27:29;9.82;;;2.22;;
77055;SDS011;67471;44.918;8.614;2023-04-28T12:30:35;5.10;;;1.90;;
77055;SDS011;67471;44.918;8.614;2023-04-28T12:33:45;7.82;;;2.00;;
77055;SDS011;67471;44.918;8.614;2023-04-28T12:36:50;2.80;;;1.80;;
77055;SDS011;67471;44.918;8.614;2023-04-28T12:39:54;7.53;;;2.30;;
77055;SDS011;67471;44.918;8.614;2023-04-28T12:42:57;12.85;;;2.58;;
77055;SDS011;67471;44.918;8.614;2023-04-28T12:46:01;4.25;;;2.30;;
77055;SDS011;67471;44.918;8.614;2023-04-28T12:49:06;11.15;;;2.45;;
77055;SDS011;67471;44.918;8.614;2023-04-28T12:52:10;7.53;;;2.55;;
77055;SDS011;67471;44.918;8.614;2023-04-28T12:55:14;12.85;;;3.05;;
77055;SDS011;67471;44.918;8.614;2023-04-28T12:58:18;5.47;;;2.33;;
77055;SDS011;67471;44.918;8.614;2023-04-28T13:01:22;6.15;;;2.63;;
77055;SDS011;67471;44.918;8.614;2023-04-28T13:04:27;5.38;;;1.95;;
77055;SDS011;67471;44.918;8.614;2023-04-28T13:07:32;8.05;;;2.72;;
77055;SDS011;67471;44.918;8.614;2023-04-28T13:10:36;5.70;;;2.08;;
77055;SDS011;67471;44.918;8.614;2023-04-28T13:13:41;4.68;;;2.08;;
77055;SDS011;67471;44.918;8.614;2023-04-28T13:16:45;6.07;;;2.60;;
77055;SDS011;67471;44.918;8.614;2023-04-28T13:19:49;10.90;;;2.50;;
77055;SDS011;67471;44.918;8.614;2023-04-28T13:22:53;6.05;;;2.03;;
77055;SDS011;67471;44.918;8.614;2023-04-28T13:25:56;5.10;;;2.20;;
77055;SDS011;67471;44.918;8.614;2023-04-28T13:29:00;5.03;;;2.00;;
77055;SDS011;67471;44.918;8.614;2023-04-28T13:32:06;9.82;;;2.03;;
77055;SDS011;67471;44.918;8.614;2023-04-28T13:35:10;5.65;;;2.30;;
77055;SDS011;67471;44.918;8.614;2023-04-28T13:38:13;10.25;;;2.83;;
77055;SDS011;67471;44.918;8.614;2023-04-28T13:41:17;7.25;;;2.50;;
77055;SDS011;67471;44.918;8.614;2023-04-28T13:44:21;5.75;;;2.22;;
77055;SDS011;67471;44.918;8.614;2023-04-28T13:47:25;6.40;;;2.13;;
77055;SDS011;67471;44.918;8.614;2023-04-28T13:50:30;5.53;;;2.30;;
77055;SDS011;67471;44.918;8.614;2023-04-28T13:53:34;6.47;;;2.50;;
77055;SDS011;67471;44.918;8.614;2023-04-28T13:56:39;5.72;;;2.63;;
77055;SDS011;67471;44.918;8.614;2023-04-28T13:59:43;6.53;;;2.50;;
77055;SDS011;67471;44.918;8.614;2023-04-28T14:02:47;4.70;;;2.35;;
77055;SDS011;67471;44.918;8.614;2023-04-28T14:05:53;5.35;;;2.20;;
77055;SDS011;67471;44.918;8.614;2023-04-28T14:08:59;5.65;;;2.13;;
77055;SDS011;67471;44.918;8.614;2023-04-28T14:12:03;6.78;;;2.10;;
77055;SDS011;67471;44.918;8.614;2023-04-28T14:15:08;7.30;;;2.22;;
77055;SDS011;67471;44.918;8.614;2023-04-28T14:18:12;5.00;;;2.10;;
77055;SDS011;67471;44.918;8.614;2023-04-28T14:21:16;8.15;;;2.47;;
77055;SDS011;67471;44.918;8.614;2023-04-28T14:24:20;4.35;;;2.10;;
77055;SDS011;67471;44.918;8.614;2023-04-28T14:27:24;4.55;;;2.17;;
77055;SDS011;67471;44.918;8.614;2023-04-28T14:30:28;5.60;;;2.38;;
77055;SDS011;67471;44.918;8.614;2023-04-28T14:33:32;7.18;;;2.35;;
77055;SDS011;67471;44.918;8.614;2023-04-28T14:36:36;6.75;;;2.28;;
77055;SDS011;67471;44.918;8.614;2023-04-28T14:39:41;7.10;;;2.80;;
77055;SDS011;67471;44.918;8.614;2023-04-28T14:42:45;6.53;;;3.13;;
77055;SDS011;67471;44.918;8.614;2023-04-28T14:45:49;8.35;;;3.05;;
77055;SDS011;67471;44.918;8.614;2023-04-28T14:48:53;10.48;;;3.00;;
77055;SDS011;67471;44.918;8.614;2023-04-28T14:51:58;6.60;;;2.53;;
77055;SDS011;67471;44.918;8.614;2023-04-28T14:55:03;14.32;;;3.53;;
77055;SDS011;67471;44.918;8.614;2023-04-28T14:58:08;5.97;;;3.28;;
77055;SDS011;67471;44.918;8.614;2023-04-28T15:01:12;7.50;;;2.65;;
77055;SDS011;67471;44.918;8.614;2023-04-28T15:04:15;5.28;;;2.42;;
77055;SDS011;67471;44.918;8.614;2023-04-28T15:07:19;5.47;;;2.47;;
77055;SDS011;67471;44.918;8.614;2023-04-28T15:10:24;8.20;;;3.20;;
77055;SDS011;67471;44.918;8.614;2023-04-28T15:13:34;4.82;;;2.63;;
77055;SDS011;67471;44.918;8.614;2023-04-28T15:16:39;9.13;;;2.53;;
77055;SDS011;67471;44.918;8.614;2023-04-28T15:19:43;9.52;;;2.60;;
77055;SDS011;67471;44.918;8.614;2023-04-28T15:22:46;6.78;;;2.60;;
77055;SDS011;67471;44.918;8.614;2023-04-28T15:25:50;6.47;;;3.40;;
77055;SDS011;67471;44.918;8.614;2023-04-28T15:28:56;6.25;;;2.70;;
77055;SDS011;67471;44.918;8.614;2023-04-28T15:32:00;5.82;;;3.30;;
77055;SDS011;67471;44.918;8.614;2023-04-28T15:35:04;7.65;;;3.30;;
77055;SDS011;67471;44.918;8.614;2023-04-28T15:38:08;7.90;;;2.95;;
77055;SDS011;67471;44.918;8.614;2023-04-28T15:41:13;5.00;;;2.50;;
77055;SDS011;67471;44.918;8.614;2023-04-28T15:44:17;5.93;;;2.83;;
77055;SDS011;67471;44.918;8.614;2023-04-28T15:47:21;9.82;;;3.42;;
77055;SDS011;67471;44.918;8.614;2023-04-28T15:50:25;6.57;;;3.13;;
77055;SDS011;67471;44.918;8.614;2023-04-28T15:53:30;5.13;;;3.00;;
77055;SDS011;67471;44.918;8.614;2023-04-28T15:56:34;5.75;;;2.55;;
77055;SDS011;67471;44.918;8.614;2023-04-28T15:59:37;6.22;;;2.90;;
77055;SDS011;67471;44.918;8.614;2023-04-28T16:02:41;9.70;;;3.25;;
77055;SDS011;67471;44.918;8.614;2023-04-28T16:05:45;5.18;;;3.08;;
77055;SDS011;67471;44.918;8.614;2023-04-28T16:08:49;7.50;;;2.80;;
77055;SDS011;67471;44.918;8.614;2023-04-28T16:11:53;6.70;;;2.92;;
77055;SDS011;67471;44.918;8.614;2023-04-28T16:14:59;11.80;;;3.70;;
77055;SDS011;67471;44.918;8.614;2023-04-28T16:18:03;8.70;;;3.90;;
77055;SDS011;67471;44.918;8.614;2023-04-28T16:21:07;7.40;;;2.72;;
77055;SDS011;67471;44.918;8.614;2023-04-28T16:24:11;7.25;;;2.70;;
77055;SDS011;67471;44.918;8.614;2023-04-28T16:27:15;6.03;;;3.00;;
77055;SDS011;67471;44.918;8.614;2023-04-28T16:30:19;5.20;;;2.83;;
77055;SDS011;67471;44.918;8.614;2023-04-28T16:33:23;6.85;;;2.70;;
77055;SDS011;67471;44.918;8.614;2023-04-28T16:36:30;4.68;;;2.72;;
77055;SDS011;67471;44.918;8.614;2023-04-28T16:39:37;8.30;;;3.13;;
77055;SDS011;67471;44.918;8.614;2023-04-28T16:42:40;7.22;;;2.95;;
77055;SDS011;67471;44.918;8.614;2023-04-28T16:45:45;6.60;;;3.15;;
77055;SDS011;67471;44.918;8.614;2023-04-28T16:48:49;5.07;;;2.80;;
77055;SDS011;67471;44.918;8.614;2023-04-28T16:52:11;6.18;;;2.95;;
77055;SDS011;67471;44.918;8.614;2023-04-28T16:55:15;7.95;;;2.95;;
77055;SDS011;67471;44.918;8.614;2023-04-28T16:58:20;5.90;;;3.10;;
77055;SDS011;67471;44.918;8.614;2023-04-28T17:01:24;7.35;;;2.97;;
77055;SDS011;67471;44.918;8.614;2023-04-28T17:04:28;6.82;;;2.72;;
77055;SDS011;67471;44.918;8.614;2023-04-28T17:07:33;6.70;;;3.40;;
77055;SDS011;67471;44.918;8.614;2023-04-28T17:10:37;6.75;;;3.13;;
77055;SDS011;67471;44.918;8.614;2023-04-28T17:13:40;6.93;;;3.25;;
77055;SDS011;67471;44.918;8.614;2023-04-28T17:16:44;5.00;;;3.05;;
77055;SDS011;67471;44.918;8.614;2023-04-28T17:19:48;5.05;;;3.00;;
77055;SDS011;67471;44.918;8.614;2023-04-28T17:22:52;4.85;;;2.78;;
77055;SDS011;67471;44.918;8.614;2023-04-28T17:25:55;6.57;;;3.03;;
77055;SDS011;67471;44.918;8.614;2023-04-28T17:28:59;6.95;;;3.25;;
77055;SDS011;67471;44.918;8.614;2023-04-28T17:32:04;8.75;;;3.17;;
77055;SDS011;67471;44.918;8.614;2023-04-28T17:35:08;5.82;;;3.10;;
77055;SDS011;67471;44.918;8.614;2023-04-28T17:38:12;9.10;;;2.95;;
77055;SDS011;67471;44.918;8.614;2023-04-28T17:41:16;6.30;;;3.40;;
77055;SDS011;67471;44.918;8.614;2023-04-28T17:44:22;8.80;;;3.35;;
77055;SDS011;67471;44.918;8.614;2023-04-28T17:47:25;8.98;;;4.00;;
77055;SDS011;67471;44.918;8.614;2023-04-28T17:50:30;6.10;;;3.63;;
77055;SDS011;67471;44.918;8.614;2023-04-28T17:53:33;5.65;;;3.10;;
77055;SDS011;67471;44.918;8.614;2023-04-28T17:56:38;11.73;;;3.65;;
77055;SDS011;67471;44.918;8.614;2023-04-28T17:59:42;6.65;;;3.80;;
77055;SDS011;67471;44.918;8.614;2023-04-28T18:02:47;6.13;;;3.30;;
77055;SDS011;67471;44.918;8.614;2023-04-28T18:05:51;7.30;;;3.72;;
77055;SDS011;67471;44.918;8.614;2023-04-28T18:08:55;6.68;;;3.30;;
77055;SDS011;67471;44.918;8.614;2023-04-28T18:11:59;5.95;;;3.17;;
77055;SDS011;67471;44.918;8.614;2023-04-28T18:15:05;3.83;;;2.80;;
77055;SDS011;67471;44.918;8.614;2023-04-28T18:18:10;7.53;;;3.80;;
77055;SDS011;67471;44.918;8.614;2023-04-28T18:21:15;6.32;;;3.75;;
77055;SDS011;67471;44.918;8.614;2023-04-28T18:24:18;7.55;;;3.70;;
77055;SDS011;67471;44.918;8.614;2023-04-28T18:27:22;11.23;;;4.45;;
77055;SDS011;67471;44.918;8.614;2023-04-28T18:30:26;7.40;;;3.53;;
77055;SDS011;67471;44.918;8.614;2023-04-28T18:33:39;5.95;;;3.47;;
77055;SDS011;67471;44.918;8.614;2023-04-28T18:36:43;7.07;;;4.05;;
77055;SDS011;67471;44.918;8.614;2023-04-28T18:39:47;7.18;;;3.92;;